sensor_id;sensor_type;location;lat;lon;timestamp;pressure;altitude;pressure_sealevel;temperature;humidity
66945;BME280;53853;51.982;5.928;2022-10-14T00:01:38;101457.78;;;13.02;79.31
66945;BME280;53853;51.982;5.928;2022-10-14T00:04:08;101460.63;;;13.00;79.72
66945;BME280;53853;51.982;5.928;2022-10-14T00:06:38;101449.22;;;12.98;79.72
66945;BME280;53853;51.982;5.928;2022-10-14T00:09:09;101462.59;;;12.98;79.91
66945;BME280;53853;51.982;5.928;2022-10-14T00:11:39;101460.94;;;12.97;80.62
66945;BME280;53853;51.982;5.928;2022-10-14T00:14:13;101466.81;;;13.01;80.27
66945;BME280;53853;51.982;5.928;2022-10-14T00:16:45;101472.03;;;13.02;80.22
66945;BME280;53853;51.982;5.928;2022-10-14T00:19:15;101467.34;;;13.04;80.07
66945;BME280;53853;51.982;5.928;2022-10-14T00:21:45;101457.63;;;13.03;79.92
66945;BME280;53853;51.982;5.928;2022-10-14T00:24:16;101460.31;;;13.03;79.60
66945;BME280;53853;51.982;5.928;2022-10-14T00:26:46;101456.97;;;13.01;79.76
66945;BME280;53853;51.982;5.928;2022-10-14T00:29:18;101454.28;;;13.01;79.41
66945;BME280;53853;51.982;5.928;2022-10-14T00:31:48;101457.09;;;13.00;79.55
66945;BME280;53853;51.982;5.928;2022-10-14T00:34:19;101451.91;;;12.98;79.79
66945;BME280;53853;51.982;5.928;2022-10-14T00:36:49;101450.25;;;12.97;79.71
66945;BME280;53853;51.982;5.928;2022-10-14T00:39:20;101455.91;;;12.94;79.85
66945;BME280;53853;51.982;5.928;2022-10-14T00:41:50;101446.16;;;12.93;80.04
66945;BME280;53853;51.982;5.928;2022-10-14T00:47:22;101448.84;;;12.93;80.21
66945;BME280;53853;51.982;5.928;2022-10-14T00:49:52;101472.09;;;12.93;80.00
66945;BME280;53853;51.982;5.928;2022-10-14T00:52:22;101465.88;;;12.92;79.78
66945;BME280;53853;51.982;5.928;2022-10-14T00:54:55;101466.03;;;12.91;80.17
66945;BME280;53853;51.982;5.928;2022-10-14T00:57:26;101461.84;;;12.88;80.23
66945;BME280;53853;51.982;5.928;2022-10-14T01:00:02;101462.81;;;12.87;80.04
66945;BME280;53853;51.982;5.928;2022-10-14T01:02:35;101460.97;;;12.87;79.92
66945;BME280;53853;51.982;5.928;2022-10-14T01:05:08;101461.41;;;12.83;80.40
66945;BME280;53853;51.982;5.928;2022-10-14T01:07:58;101458.75;;;12.83;80.63
66945;BME280;53853;51.982;5.928;2022-10-14T01:10:36;101455.09;;;12.84;80.56
66945;BME280;53853;51.982;5.928;2022-10-14T01:13:16;101443.25;;;12.86;80.28
66945;BME280;53853;51.982;5.928;2022-10-14T01:15:57;101438.75;;;12.87;80.15
66945;BME280;53853;51.982;5.928;2022-10-14T01:18:42;101438.75;;;12.87;79.79
66945;BME280;53853;51.982;5.928;2022-10-14T01:21:24;101435.38;;;12.85;79.59
66945;BME280;53853;51.982;5.928;2022-10-14T01:24:19;101431.16;;;12.82;79.94
66945;BME280;53853;51.982;5.928;2022-10-14T01:27:11;101424.13;;;12.81;79.66
66945;BME280;53853;51.982;5.928;2022-10-14T01:30:04;101432.28;;;12.80;79.73
66945;BME280;53853;51.982;5.928;2022-10-14T01:32:41;101419.94;;;12.79;79.58
66945;BME280;53853;51.982;5.928;2022-10-14T01:35:21;101414.88;;;12.76;79.63
66945;BME280;53853;51.982;5.928;2022-10-14T01:37:54;101414.34;;;12.72;79.74
66945;BME280;53853;51.982;5.928;2022-10-14T01:40:33;101409.97;;;12.71;79.91
66945;BME280;53853;51.982;5.928;2022-10-14T01:43:05;101401.44;;;12.67;80.08
66945;BME280;53853;51.982;5.928;2022-10-14T01:45:41;101388.66;;;12.61;80.19
66945;BME280;53853;51.982;5.928;2022-10-14T01:48:17;101388.25;;;12.56;80.55
66945;BME280;53853;51.982;5.928;2022-10-14T01:50:49;101386.41;;;12.57;80.51
66945;BME280;53853;51.982;5.928;2022-10-14T01:53:24;101388.41;;;12.55;80.87
66945;BME280;53853;51.982;5.928;2022-10-14T01:55:57;101383.06;;;12.55;80.92
66945;BME280;53853;51.982;5.928;2022-10-14T01:58:28;101379.38;;;12.56;81.03
66945;BME280;53853;51.982;5.928;2022-10-14T02:01:06;101384.59;;;12.57;81.02
66945;BME280;53853;51.982;5.928;2022-10-14T02:03:41;101383.31;;;12.61;80.63
66945;BME280;53853;51.982;5.928;2022-10-14T02:06:14;101378.94;;;12.60;80.50
66945;BME280;53853;51.982;5.928;2022-10-14T02:09:00;101377.28;;;12.59;80.64
66945;BME280;53853;51.982;5.928;2022-10-14T02:11:36;101379.22;;;12.57;80.96
66945;BME280;53853;51.982;5.928;2022-10-14T02:14:17;101384.28;;;12.60;80.54
66945;BME280;53853;51.982;5.928;2022-10-14T02:16:59;101380.09;;;12.58;80.73
66945;BME280;53853;51.982;5.928;2022-10-14T02:19:38;101391.47;;;12.60;80.67
66945;BME280;53853;51.982;5.928;2022-10-14T02:22:17;101385.84;;;12.63;80.50
66945;BME280;53853;51.982;5.928;2022-10-14T02:24:52;101386.22;;;12.68;79.97
66945;BME280;53853;51.982;5.928;2022-10-14T02:27:25;101381.84;;;12.67;80.03
66945;BME280;53853;51.982;5.928;2022-10-14T02:29:59;101378.63;;;12.63;80.38
66945;BME280;53853;51.982;5.928;2022-10-14T02:32:33;101367.25;;;12.61;80.69
66945;BME280;53853;51.982;5.928;2022-10-14T02:35:06;101371.94;;;12.59;80.85
66945;BME280;53853;51.982;5.928;2022-10-14T02:37:39;101355.47;;;12.54;81.20
66945;BME280;53853;51.982;5.928;2022-10-14T02:40:12;101369.41;;;12.58;81.45
66945;BME280;53853;51.982;5.928;2022-10-14T02:42:43;101368.25;;;12.60;81.18
66945;BME280;53853;51.982;5.928;2022-10-14T02:45:14;101362.91;;;12.60;81.22
66945;BME280;53853;51.982;5.928;2022-10-14T02:47:48;101364.13;;;12.66;80.94
66945;BME280;53853;51.982;5.928;2022-10-14T02:50:18;101369.63;;;12.64;81.09
66945;BME280;53853;51.982;5.928;2022-10-14T02:52:48;101368.78;;;12.64;81.28
66945;BME280;53853;51.982;5.928;2022-10-14T02:55:17;101365.81;;;12.67;81.11
66945;BME280;53853;51.982;5.928;2022-10-14T02:57:47;101359.31;;;12.69;81.13
66945;BME280;53853;51.982;5.928;2022-10-14T03:00:19;101362.00;;;12.69;81.18
66945;BME280;53853;51.982;5.928;2022-10-14T03:02:52;101359.16;;;12.71;81.07
66945;BME280;53853;51.982;5.928;2022-10-14T03:05:22;101351.00;;;12.73;80.98
66945;BME280;53853;51.982;5.928;2022-10-14T03:07:54;101348.31;;;12.73;81.44
66945;BME280;53853;51.982;5.928;2022-10-14T03:10:26;101346.47;;;12.73;81.18
66945;BME280;53853;51.982;5.928;2022-10-14T03:12:57;101342.81;;;12.74;81.26
66945;BME280;53853;51.982;5.928;2022-10-14T03:15:31;101347.03;;;12.77;80.80
66945;BME280;53853;51.982;5.928;2022-10-14T03:18:04;101346.03;;;12.78;80.88
66945;BME280;53853;51.982;5.928;2022-10-14T03:20:43;101346.88;;;12.78;80.66
66945;BME280;53853;51.982;5.928;2022-10-14T03:23:17;101343.34;;;12.78;80.58
66945;BME280;53853;51.982;5.928;2022-10-14T03:25:50;101331.00;;;12.77;80.64
66945;BME280;53853;51.982;5.928;2022-10-14T03:28:25;101332.97;;;12.75;80.65
66945;BME280;53853;51.982;5.928;2022-10-14T03:31:04;101329.59;;;12.73;81.03
66945;BME280;53853;51.982;5.928;2022-10-14T03:34:05;101319.06;;;12.71;81.02
66945;BME280;53853;51.982;5.928;2022-10-14T03:36:37;101320.63;;;12.64;81.12
66945;BME280;53853;51.982;5.928;2022-10-14T03:39:08;101313.94;;;12.60;81.49
66945;BME280;53853;51.982;5.928;2022-10-14T03:41:44;101314.75;;;12.60;81.22
66945;BME280;53853;51.982;5.928;2022-10-14T03:44:18;101312.38;;;12.57;81.73
66945;BME280;53853;51.982;5.928;2022-10-14T03:47:07;101304.38;;;12.57;81.69
66945;BME280;53853;51.982;5.928;2022-10-14T03:49:40;101301.09;;;12.63;81.47
66945;BME280;53853;51.982;5.928;2022-10-14T03:52:21;101300.94;;;12.65;82.08
66945;BME280;53853;51.982;5.928;2022-10-14T03:55:00;101303.31;;;12.68;81.84
66945;BME280;53853;51.982;5.928;2022-10-14T03:57:30;101304.00;;;12.70;81.81
66945;BME280;53853;51.982;5.928;2022-10-14T04:00:01;101304.84;;;12.71;81.75
66945;BME280;53853;51.982;5.928;2022-10-14T04:02:43;101302.88;;;12.73;81.75
66945;BME280;53853;51.982;5.928;2022-10-14T04:05:35;101303.53;;;12.75;81.63
66945;BME280;53853;51.982;5.928;2022-10-14T04:08:11;101296.22;;;12.77;81.54
66945;BME280;53853;51.982;5.928;2022-10-14T04:10:50;101296.91;;;12.79;81.50
66945;BME280;53853;51.982;5.928;2022-10-14T04:13:21;101295.06;;;12.79;81.81
66945;BME280;53853;51.982;5.928;2022-10-14T04:15:51;101285.03;;;12.81;81.86
66945;BME280;53853;51.982;5.928;2022-10-14T04:18:29;101276.88;;;12.83;81.59
66945;BME280;53853;51.982;5.928;2022-10-14T04:21:05;101282.78;;;12.86;81.41
66945;BME280;53853;51.982;5.928;2022-10-14T04:23:36;101281.59;;;12.89;81.30
66945;BME280;53853;51.982;5.928;2022-10-14T04:26:15;101283.28;;;12.90;81.40
66945;BME280;53853;51.982;5.928;2022-10-14T04:28:46;101282.63;;;12.88;81.38
66945;BME280;53853;51.982;5.928;2022-10-14T04:31:30;101275.25;;;12.90;81.46
66945;BME280;53853;51.982;5.928;2022-10-14T04:34:02;101273.41;;;12.91;81.23
66945;BME280;53853;51.982;5.928;2022-10-14T04:36:41;101278.63;;;12.92;81.32
66945;BME280;53853;51.982;5.928;2022-10-14T04:39:28;101275.94;;;12.92;81.26
66945;BME280;53853;51.982;5.928;2022-10-14T04:41:58;101266.94;;;12.93;80.97
66945;BME280;53853;51.982;5.928;2022-10-14T04:44:28;101256.22;;;12.93;80.92
66945;BME280;53853;51.982;5.928;2022-10-14T04:47:00;101251.03;;;12.92;80.79
66945;BME280;53853;51.982;5.928;2022-10-14T04:49:31;101247.53;;;12.91;81.07
66945;BME280;53853;51.982;5.928;2022-10-14T04:52:15;101246.66;;;12.91;81.15
66945;BME280;53853;51.982;5.928;2022-10-14T04:55:00;101245.69;;;12.92;81.33
66945;BME280;53853;51.982;5.928;2022-10-14T04:57:37;101242.84;;;12.93;81.52
66945;BME280;53853;51.982;5.928;2022-10-14T05:00:11;101245.22;;;12.96;81.45
66945;BME280;53853;51.982;5.928;2022-10-14T05:02:55;101235.19;;;12.98;81.37
66945;BME280;53853;51.982;5.928;2022-10-14T05:05:31;101238.41;;;13.02;81.15
66945;BME280;53853;51.982;5.928;2022-10-14T05:08:07;101240.91;;;13.03;81.11
66945;BME280;53853;51.982;5.928;2022-10-14T05:10:40;101234.56;;;13.04;81.24
66945;BME280;53853;51.982;5.928;2022-10-14T05:13:17;101229.06;;;13.06;81.32
66945;BME280;53853;51.982;5.928;2022-10-14T05:15:59;101233.44;;;13.07;81.18
66945;BME280;53853;51.982;5.928;2022-10-14T05:18:30;101226.25;;;13.08;81.24
66945;BME280;53853;51.982;5.928;2022-10-14T05:21:04;101222.41;;;13.10;81.21
66945;BME280;53853;51.982;5.928;2022-10-14T05:24:03;101222.25;;;13.12;81.22
66945;BME280;53853;51.982;5.928;2022-10-14T05:26:36;101218.56;;;13.13;81.28
66945;BME280;53853;51.982;5.928;2022-10-14T05:29:10;101205.03;;;13.14;81.15
66945;BME280;53853;51.982;5.928;2022-10-14T05:31:41;101197.88;;;13.15;81.35
66945;BME280;53853;51.982;5.928;2022-10-14T05:34:21;101202.34;;;13.14;81.65
66945;BME280;53853;51.982;5.928;2022-10-14T05:36:51;101206.41;;;13.18;81.44
66945;BME280;53853;51.982;5.928;2022-10-14T05:39:25;101208.94;;;13.20;81.58
66945;BME280;53853;51.982;5.928;2022-10-14T05:41:56;101213.97;;;13.23;81.47
66945;BME280;53853;51.982;5.928;2022-10-14T05:44:29;101200.44;;;13.25;81.71
66945;BME280;53853;51.982;5.928;2022-10-14T05:46:59;101198.44;;;13.27;81.56
66945;BME280;53853;51.982;5.928;2022-10-14T05:49:29;101190.25;;;13.28;81.77
66945;BME280;53853;51.982;5.928;2022-10-14T05:52:02;101191.06;;;13.29;81.84
66945;BME280;53853;51.982;5.928;2022-10-14T05:54:36;101184.28;;;13.34;81.48
66945;BME280;53853;51.982;5.928;2022-10-14T05:57:07;101187.78;;;13.35;82.14
66945;BME280;53853;51.982;5.928;2022-10-14T05:59:37;101177.91;;;13.35;82.02
66945;BME280;53853;51.982;5.928;2022-10-14T06:02:08;101174.09;;;13.38;81.93
66945;BME280;53853;51.982;5.928;2022-10-14T06:04:38;101172.25;;;13.38;82.30
66945;BME280;53853;51.982;5.928;2022-10-14T06:07:09;101170.09;;;13.42;82.17
66945;BME280;53853;51.982;5.928;2022-10-14T06:09:41;101170.94;;;13.43;82.33
66945;BME280;53853;51.982;5.928;2022-10-14T06:12:11;101167.25;;;13.44;82.38
66945;BME280;53853;51.982;5.928;2022-10-14T06:14:41;101170.63;;;13.46;82.33
66945;BME280;53853;51.982;5.928;2022-10-14T06:17:11;101168.75;;;13.46;82.55
66945;BME280;53853;51.982;5.928;2022-10-14T06:19:41;101161.44;;;13.48;82.69
66945;BME280;53853;51.982;5.928;2022-10-14T06:22:11;101165.59;;;13.51;82.83
66945;BME280;53853;51.982;5.928;2022-10-14T06:24:43;101168.78;;;13.54;82.84
66945;BME280;53853;51.982;5.928;2022-10-14T06:27:13;101160.59;;;13.56;82.76
66945;BME280;53853;51.982;5.928;2022-10-14T06:29:43;101160.44;;;13.57;83.01
66945;BME280;53853;51.982;5.928;2022-10-14T06:32:13;101158.47;;;13.59;83.31
66945;BME280;53853;51.982;5.928;2022-10-14T06:34:43;101154.59;;;13.62;83.23
66945;BME280;53853;51.982;5.928;2022-10-14T06:37:13;101163.84;;;13.68;83.00
66945;BME280;53853;51.982;5.928;2022-10-14T06:39:45;101162.53;;;13.72;83.11
66945;BME280;53853;51.982;5.928;2022-10-14T06:42:15;101155.00;;;13.75;83.22
66945;BME280;53853;51.982;5.928;2022-10-14T06:44:45;101149.97;;;13.81;82.94
66945;BME280;53853;51.982;5.928;2022-10-14T06:47:15;101149.50;;;13.85;83.47
66945;BME280;53853;51.982;5.928;2022-10-14T06:49:45;101153.53;;;13.89;83.13
66945;BME280;53853;51.982;5.928;2022-10-14T06:52:15;101135.94;;;13.95;82.72
66945;BME280;53853;51.982;5.928;2022-10-14T06:54:47;101138.63;;;14.03;83.03
66945;BME280;53853;51.982;5.928;2022-10-14T06:57:17;101135.28;;;14.09;83.33
66945;BME280;53853;51.982;5.928;2022-10-14T06:59:47;101133.97;;;14.13;83.12
66945;BME280;53853;51.982;5.928;2022-10-14T07:02:16;101136.31;;;14.17;83.34
66945;BME280;53853;51.982;5.928;2022-10-14T07:04:46;101131.63;;;14.19;83.16
66945;BME280;53853;51.982;5.928;2022-10-14T07:07:16;101140.31;;;14.21;83.37
66945;BME280;53853;51.982;5.928;2022-10-14T07:09:49;101143.69;;;14.23;83.41
66945;BME280;53853;51.982;5.928;2022-10-14T07:12:19;101136.31;;;14.25;83.55
66945;BME280;53853;51.982;5.928;2022-10-14T07:14:49;101136.97;;;14.27;83.59
66945;BME280;53853;51.982;5.928;2022-10-14T07:17:19;101136.81;;;14.28;83.69
66945;BME280;53853;51.982;5.928;2022-10-14T07:19:49;101144.34;;;14.33;83.54
66945;BME280;53853;51.982;5.928;2022-10-14T07:22:19;101137.84;;;14.36;83.81
66945;BME280;53853;51.982;5.928;2022-10-14T07:24:51;101130.13;;;14.41;83.55
66945;BME280;53853;51.982;5.928;2022-10-14T07:27:21;101129.94;;;14.42;83.55
66945;BME280;53853;51.982;5.928;2022-10-14T07:29:51;101135.81;;;14.46;83.53
66945;BME280;53853;51.982;5.928;2022-10-14T07:32:21;101127.44;;;14.49;83.37
66945;BME280;53853;51.982;5.928;2022-10-14T07:34:51;101131.47;;;14.53;83.43
66945;BME280;53853;51.982;5.928;2022-10-14T07:37:21;101124.25;;;14.54;83.54
66945;BME280;53853;51.982;5.928;2022-10-14T07:39:54;101130.09;;;14.57;83.36
66945;BME280;53853;51.982;5.928;2022-10-14T07:42:24;101127.13;;;14.60;83.47
66945;BME280;53853;51.982;5.928;2022-10-14T07:44:54;101129.63;;;14.62;83.51
66945;BME280;53853;51.982;5.928;2022-10-14T07:47:24;101136.16;;;14.67;83.37
66945;BME280;53853;51.982;5.928;2022-10-14T07:49:54;101130.31;;;14.72;83.43
66945;BME280;53853;51.982;5.928;2022-10-14T07:52:24;101132.81;;;14.74;83.52
66945;BME280;53853;51.982;5.928;2022-10-14T07:54:56;101122.56;;;14.77;83.21
66945;BME280;53853;51.982;5.928;2022-10-14T07:57:27;101130.63;;;14.77;83.52
66945;BME280;53853;51.982;5.928;2022-10-14T07:59:57;101127.59;;;14.80;83.50
66945;BME280;53853;51.982;5.928;2022-10-14T08:02:27;101131.97;;;14.81;83.11
66945;BME280;53853;51.982;5.928;2022-10-14T08:04:57;101125.56;;;14.82;83.19
66945;BME280;53853;51.982;5.928;2022-10-14T08:07:27;101121.56;;;14.87;83.34
66945;BME280;53853;51.982;5.928;2022-10-14T08:10:00;101123.38;;;14.86;83.44
66945;BME280;53853;51.982;5.928;2022-10-14T08:12:30;101114.97;;;14.89;83.45
66945;BME280;53853;51.982;5.928;2022-10-14T08:15:00;101119.84;;;14.94;83.65
66945;BME280;53853;51.982;5.928;2022-10-14T08:17:30;101117.84;;;14.96;83.42
66945;BME280;53853;51.982;5.928;2022-10-14T08:20:00;101119.31;;;14.98;83.52
66945;BME280;53853;51.982;5.928;2022-10-14T08:22:30;101111.09;;;15.00;83.38
66945;BME280;53853;51.982;5.928;2022-10-14T08:25:03;101108.72;;;15.05;83.36
66945;BME280;53853;51.982;5.928;2022-10-14T08:27:33;101106.06;;;15.05;83.50
66945;BME280;53853;51.982;5.928;2022-10-14T08:30:03;101101.38;;;15.07;83.33
66945;BME280;53853;51.982;5.928;2022-10-14T08:32:34;101103.03;;;15.08;83.49
66945;BME280;53853;51.982;5.928;2022-10-14T08:35:05;101108.22;;;15.10;83.42
66945;BME280;53853;51.982;5.928;2022-10-14T08:37:35;101107.03;;;15.12;83.25
66945;BME280;53853;51.982;5.928;2022-10-14T08:40:09;101111.06;;;15.16;83.34
66945;BME280;53853;51.982;5.928;2022-10-14T08:42:46;101109.03;;;15.18;83.32
66945;BME280;53853;51.982;5.928;2022-10-14T08:45:25;101100.81;;;15.20;83.19
66945;BME280;53853;51.982;5.928;2022-10-14T08:48:00;101102.13;;;15.24;83.28
66945;BME280;53853;51.982;5.928;2022-10-14T08:50:35;101101.94;;;15.26;83.25
66945;BME280;53853;51.982;5.928;2022-10-14T08:53:11;101100.78;;;15.28;83.23
66945;BME280;53853;51.982;5.928;2022-10-14T08:55:47;101103.94;;;15.32;82.97
66945;BME280;53853;51.982;5.928;2022-10-14T08:58:20;101094.22;;;15.31;83.20
66945;BME280;53853;51.982;5.928;2022-10-14T09:00:52;101091.72;;;15.29;83.30
66945;BME280;53853;51.982;5.928;2022-10-14T09:03:25;101096.06;;;15.30;83.19
66945;BME280;53853;51.982;5.928;2022-10-14T09:06:00;101095.06;;;15.31;83.21
66945;BME280;53853;51.982;5.928;2022-10-14T09:08:33;101099.25;;;15.34;83.17
66945;BME280;53853;51.982;5.928;2022-10-14T09:11:12;101098.91;;;15.37;83.32
66945;BME280;53853;51.982;5.928;2022-10-14T09:13:44;101104.28;;;15.37;83.23
66945;BME280;53853;51.982;5.928;2022-10-14T09:16:19;101097.88;;;15.38;83.49
66945;BME280;53853;51.982;5.928;2022-10-14T09:18:51;101090.00;;;15.36;83.28
66945;BME280;53853;51.982;5.928;2022-10-14T09:21:30;101086.31;;;15.37;83.35
66945;BME280;53853;51.982;5.928;2022-10-14T09:24:14;101088.81;;;15.39;83.26
66945;BME280;53853;51.982;5.928;2022-10-14T09:26:49;101085.78;;;15.42;83.11
66945;BME280;53853;51.982;5.928;2022-10-14T09:29:24;101080.88;;;15.46;83.34
66945;BME280;53853;51.982;5.928;2022-10-14T09:31:56;101080.53;;;15.49;83.10
66945;BME280;53853;51.982;5.928;2022-10-14T09:34:33;101090.44;;;15.48;83.29
66945;BME280;53853;51.982;5.928;2022-10-14T09:37:25;101084.91;;;15.50;83.08
66945;BME280;53853;51.982;5.928;2022-10-14T09:39:58;101084.91;;;15.50;83.28
66945;BME280;53853;51.982;5.928;2022-10-14T09:42:43;101072.94;;;15.52;83.31
66945;BME280;53853;51.982;5.928;2022-10-14T09:45:18;101060.84;;;15.56;83.27
66945;BME280;53853;51.982;5.928;2022-10-14T09:47:53;101058.81;;;15.58;83.03
66945;BME280;53853;51.982;5.928;2022-10-14T09:50:26;101062.84;;;15.63;83.29
66945;BME280;53853;51.982;5.928;2022-10-14T09:53:00;101063.78;;;15.70;83.12
66945;BME280;53853;51.982;5.928;2022-10-14T09:55:31;101063.97;;;15.77;83.27
66945;BME280;53853;51.982;5.928;2022-10-14T09:58:07;101064.91;;;15.84;83.40
66945;BME280;53853;51.982;5.928;2022-10-14T10:00:41;101066.03;;;15.89;83.37
66945;BME280;53853;51.982;5.928;2022-10-14T10:03:25;101053.06;;;15.93;83.21
66945;BME280;53853;51.982;5.928;2022-10-14T10:06:06;101061.25;;;16.00;83.02
66945;BME280;53853;51.982;5.928;2022-10-14T10:08:37;101049.31;;;16.02;83.08
66945;BME280;53853;51.982;5.928;2022-10-14T10:11:10;101056.16;;;16.05;82.97
66945;BME280;53853;51.982;5.928;2022-10-14T10:13:44;101056.84;;;16.07;82.95
66945;BME280;53853;51.982;5.928;2022-10-14T10:16:20;101054.44;;;16.12;82.84
66945;BME280;53853;51.982;5.928;2022-10-14T10:18:51;101055.09;;;16.14;82.76
66945;BME280;53853;51.982;5.928;2022-10-14T10:21:23;101058.91;;;16.20;82.57
66945;BME280;53853;51.982;5.928;2022-10-14T10:23:57;101051.31;;;16.23;82.51
66945;BME280;53853;51.982;5.928;2022-10-14T10:26:29;101053.81;;;16.25;82.09
66945;BME280;53853;51.982;5.928;2022-10-14T10:29:04;101043.88;;;16.25;82.05
66945;BME280;53853;51.982;5.928;2022-10-14T10:31:50;101044.06;;;16.24;81.92
66945;BME280;53853;51.982;5.928;2022-10-14T10:34:45;101034.16;;;16.24;82.00
66945;BME280;53853;51.982;5.928;2022-10-14T10:37:24;101033.81;;;16.27;81.75
66945;BME280;53853;51.982;5.928;2022-10-14T10:40:07;101028.88;;;16.31;81.61
66945;BME280;53853;51.982;5.928;2022-10-14T10:42:46;101024.81;;;16.35;82.00
66945;BME280;53853;51.982;5.928;2022-10-14T10:45:33;101025.75;;;16.42;82.07
66945;BME280;53853;51.982;5.928;2022-10-14T10:48:11;101020.63;;;16.47;81.73
66945;BME280;53853;51.982;5.928;2022-10-14T10:50:49;101014.53;;;16.54;81.76
66945;BME280;53853;51.982;5.928;2022-10-14T10:53:43;101015.28;;;16.62;81.74
66945;BME280;53853;51.982;5.928;2022-10-14T10:56:25;101013.69;;;16.68;81.91
66945;BME280;53853;51.982;5.928;2022-10-14T10:59:22;101010.44;;;16.73;81.73
66945;BME280;53853;51.982;5.928;2022-10-14T11:02:12;101004.31;;;16.79;81.72
66945;BME280;53853;51.982;5.928;2022-10-14T11:04:53;100999.91;;;16.86;81.66
66945;BME280;53853;51.982;5.928;2022-10-14T11:07:33;100997.28;;;16.93;81.67
66945;BME280;53853;51.982;5.928;2022-10-14T11:10:26;100989.66;;;16.96;80.74
66945;BME280;53853;51.982;5.928;2022-10-14T11:13:17;100983.06;;;16.99;80.68
66945;BME280;53853;51.982;5.928;2022-10-14T11:15:53;100978.53;;;16.99;79.96
66945;BME280;53853;51.982;5.928;2022-10-14T11:18:39;100979.72;;;16.97;79.64
66945;BME280;53853;51.982;5.928;2022-10-14T11:21:23;100967.69;;;16.93;79.84
66945;BME280;53853;51.982;5.928;2022-10-14T11:24:04;100979.47;;;16.92;80.01
66945;BME280;53853;51.982;5.928;2022-10-14T11:26:50;100967.88;;;16.91;79.78
66945;BME280;53853;51.982;5.928;2022-10-14T11:29:33;100975.50;;;16.88;79.57
66945;BME280;53853;51.982;5.928;2022-10-14T11:32:19;100976.50;;;16.87;79.84
66945;BME280;53853;51.982;5.928;2022-10-14T11:35:08;100963.03;;;16.87;79.80
66945;BME280;53853;51.982;5.928;2022-10-14T11:37:52;100967.75;;;16.84;79.93
66945;BME280;53853;51.982;5.928;2022-10-14T11:40:33;100958.19;;;16.82;80.18
66945;BME280;53853;51.982;5.928;2022-10-14T11:43:20;100953.81;;;16.81;80.18
66945;BME280;53853;51.982;5.928;2022-10-14T11:45:54;100949.47;;;16.80;80.57
66945;BME280;53853;51.982;5.928;2022-10-14T11:48:30;100954.69;;;16.81;80.47
66945;BME280;53853;51.982;5.928;2022-10-14T11:51:08;100945.56;;;16.82;80.42
66945;BME280;53853;51.982;5.928;2022-10-14T11:53:54;100934.97;;;16.81;80.60
66945;BME280;53853;51.982;5.928;2022-10-14T11:56:36;100936.41;;;16.77;80.40
66945;BME280;53853;51.982;5.928;2022-10-14T11:59:18;100935.53;;;16.76;80.38
66945;BME280;53853;51.982;5.928;2022-10-14T12:01:53;100933.91;;;16.75;80.81
66945;BME280;53853;51.982;5.928;2022-10-14T12:04:29;100932.84;;;16.76;80.93
66945;BME280;53853;51.982;5.928;2022-10-14T12:07:02;100928.69;;;16.74;80.67
66945;BME280;53853;51.982;5.928;2022-10-14T12:09:38;100929.25;;;16.69;80.97
66945;BME280;53853;51.982;5.928;2022-10-14T12:12:13;100919.69;;;16.66;80.95
66945;BME280;53853;51.982;5.928;2022-10-14T12:14:48;100926.94;;;16.66;81.02
66945;BME280;53853;51.982;5.928;2022-10-14T12:17:24;100920.91;;;16.64;80.94
66945;BME280;53853;51.982;5.928;2022-10-14T12:19:56;100923.63;;;16.64;81.01
66945;BME280;53853;51.982;5.928;2022-10-14T12:22:32;100917.75;;;16.60;81.16
66945;BME280;53853;51.982;5.928;2022-10-14T12:25:06;100911.09;;;16.56;81.70
66945;BME280;53853;51.982;5.928;2022-10-14T12:27:40;100908.84;;;16.60;81.41
66945;BME280;53853;51.982;5.928;2022-10-14T12:30:32;100912.19;;;16.62;81.41
66945;BME280;53853;51.982;5.928;2022-10-14T12:33:04;100901.16;;;16.57;81.96
66945;BME280;53853;51.982;5.928;2022-10-14T12:35:52;100897.28;;;16.59;82.37
66945;BME280;53853;51.982;5.928;2022-10-14T12:38:28;100902.28;;;16.62;82.19
66945;BME280;53853;51.982;5.928;2022-10-14T12:41:32;100895.28;;;16.68;82.09
66945;BME280;53853;51.982;5.928;2022-10-14T12:44:03;100897.16;;;16.67;82.28
66945;BME280;53853;51.982;5.928;2022-10-14T12:46:42;100886.00;;;16.71;82.30
66945;BME280;53853;51.982;5.928;2022-10-14T12:49:17;100886.09;;;16.77;82.33
66945;BME280;53853;51.982;5.928;2022-10-14T12:51:54;100886.16;;;16.84;82.51
66945;BME280;53853;51.982;5.928;2022-10-14T12:54:30;100886.28;;;16.91;82.38
66945;BME280;53853;51.982;5.928;2022-10-14T12:57:03;100879.47;;;16.95;82.53
66945;BME280;53853;51.982;5.928;2022-10-14T12:59:37;100874.91;;;16.95;82.20
66945;BME280;53853;51.982;5.928;2022-10-14T13:02:17;100869.34;;;16.97;82.21
66945;BME280;53853;51.982;5.928;2022-10-14T13:04:54;100860.88;;;17.00;82.19
66945;BME280;53853;51.982;5.928;2022-10-14T13:07:31;100860.31;;;17.05;82.03
66945;BME280;53853;51.982;5.928;2022-10-14T13:13:48;100855.59;;;17.07;82.09
66945;BME280;53853;51.982;5.928;2022-10-14T13:16:54;100846.03;;;17.04;81.91
66945;BME280;53853;51.982;5.928;2022-10-14T13:19:41;100841.47;;;17.05;82.21
66945;BME280;53853;51.982;5.928;2022-10-14T13:22:39;100842.94;;;17.07;81.89
66945;BME280;53853;51.982;5.928;2022-10-14T13:25:16;100831.34;;;17.07;82.01
66945;BME280;53853;51.982;5.928;2022-10-14T13:30:48;100835.94;;;17.13;81.88
66945;BME280;53853;51.982;5.928;2022-10-14T13:33:25;100831.41;;;17.13;81.90
66945;BME280;53853;51.982;5.928;2022-10-14T13:36:03;100833.25;;;17.13;81.65
66945;BME280;53853;51.982;5.928;2022-10-14T13:38:38;100827.63;;;17.08;81.92
66945;BME280;53853;51.982;5.928;2022-10-14T13:41:15;100825.13;;;17.06;81.93
66945;BME280;53853;51.982;5.928;2022-10-14T13:43:56;100827.81;;;17.06;81.98